Time;durP1;ratioP1;P1;durP2;ratioP2;P2;SDS_P1;SDS_P2;PMS_P1;PMS_P2;Temp;Humidity;BMP_temperature;BMP_pressure;BME280_temperature;BME280_humidity;BME280_pressure;Samples;Min_cycle;Max_cycle;Signal;HPM_P1;HPM_P2
2022/03/24 00:01:07;;;;;;;7.40;6.70;;;22.30;62.50;;;;;;6129946;28;89527;-69
2022/03/24 00:04:09;;;;;;;9.43;7.13;;;22.30;62.50;;;;;;6136132;28;87327;-70
2022/03/24 00:07:11;;;;;;;7.13;6.43;;;22.30;62.50;;;;;;6135796;28;89025;-69
2022/03/24 00:10:15;;;;;;;7.72;6.97;;;22.30;62.40;;;;;;6126446;28;88099;-69
2022/03/24 00:13:17;;;;;;;8.10;7.30;;;22.40;62.50;;;;;;6130052;28;90105;-69
2022/03/24 00:16:19;;;;;;;8.20;7.38;;;22.30;62.40;;;;;;6133382;28;88347;-69
2022/03/24 00:19:22;;;;;;;8.18;7.35;;;22.30;62.30;;;;;;6135113;28;89019;-69
2022/03/24 00:22:24;;;;;;;7.80;6.97;;;22.30;62.50;;;;;;6135237;28;89073;-69
2022/03/24 00:25:46;;;;;;;8.10;7.30;;;22.30;62.40;;;;;;6132146;28;87987;-70
2022/03/24 00:28:47;;;;;;;8.48;7.68;;;22.30;62.50;;;;;;6125207;28;89450;-69
2022/03/24 00:31:49;;;;;;;9.18;7.95;;;22.20;62.30;;;;;;6123242;28;89054;-69
2022/03/24 00:34:52;;;;;;;9.55;8.07;;;22.30;62.50;;;;;;6134676;28;88419;-69
2022/03/24 00:37:54;;;;;;;8.48;7.68;;;22.20;62.50;;;;;;6133585;28;88186;-69
2022/03/24 00:40:57;;;;;;;10.13;8.70;;;22.20;62.50;;;;;;6134561;28;89112;-69
2022/03/24 00:44:00;;;;;;;8.68;7.78;;;22.20;62.50;;;;;;6135331;28;89728;-69
2022/03/24 00:47:02;;;;;;;9.48;8.57;;;22.30;62.70;;;;;;6134792;28;89136;-69
2022/03/24 00:50:05;;;;;;;9.15;8.25;;;22.30;62.70;;;;;;6133774;28;89027;-69
2022/03/24 00:53:07;;;;;;;9.32;8.43;;;22.20;62.60;;;;;;6134313;28;89185;-69
2022/03/24 00:56:28;;;;;;;9.50;8.50;;;22.20;62.70;;;;;;6134565;28;89099;-69
2022/03/24 00:59:30;;;;;;;8.82;7.63;;;22.20;62.70;;;;;;6121190;28;89102;-68
2022/03/24 01:02:35;;;;;;;9.65;8.65;;;22.20;62.70;;;;;;6118949;28;89084;-69
2022/03/24 01:05:38;;;;;;;9.70;8.40;;;22.20;62.70;;;;;;6131495;28;87280;-69
2022/03/24 01:08:40;;;;;;;9.38;8.48;;;22.20;62.70;;;;;;6134925;28;87993;-68
2022/03/24 01:11:43;;;;;;;9.25;8.32;;;22.20;62.70;;;;;;6132629;28;89070;-69
2022/03/24 01:14:45;;;;;;;9.25;8.27;;;22.20;62.70;;;;;;6132851;28;90138;-69
2022/03/24 01:17:48;;;;;;;9.63;8.45;;;22.20;62.70;;;;;;6133142;28;89123;-69
2022/03/24 01:20:51;;;;;;;8.45;7.65;;;22.20;62.70;;;;;;6120732;28;89015;-70
2022/03/24 01:23:53;;;;;;;10.23;7.18;;;22.10;62.70;;;;;;6133942;28;89363;-69
2022/03/24 01:26:57;;;;;;;8.80;7.15;;;22.20;62.40;;;;;;6133618;28;88993;-70
2022/03/24 01:29:59;;;;;;;8.85;7.80;;;22.10;62.50;;;;;;6134306;28;88986;-69
2022/03/24 01:33:02;;;;;;;8.27;7.47;;;22.10;62.50;;;;;;6121517;28;89294;-68
2022/03/24 01:36:05;;;;;;;9.73;7.95;;;22.10;62.70;;;;;;6134464;28;88356;-69
2022/03/24 01:39:07;;;;;;;9.15;8.13;;;22.10;62.70;;;;;;6132668;28;88910;-69
2022/03/24 01:42:11;;;;;;;8.10;7.30;;;22.10;62.70;;;;;;6133860;28;89173;-69
2022/03/24 01:45:14;;;;;;;8.98;8.07;;;22.10;62.70;;;;;;6132204;28;90080;-69
2022/03/24 01:48:16;;;;;;;9.35;8.18;;;22.10;62.70;;;;;;6134469;28;89169;-68
2022/03/24 01:51:18;;;;;;;9.23;7.93;;;22.10;62.80;;;;;;6133606;28;88895;-69
2022/03/24 01:54:21;;;;;;;8.65;7.75;;;22.10;62.80;;;;;;6128358;28;89087;-69
2022/03/24 01:57:26;;;;;;;8.73;7.82;;;22.00;62.70;;;;;;6120122;28;89525;-68
2022/03/24 02:00:28;;;;;;;8.80;7.47;;;22.10;62.80;;;;;;6127806;28;89264;-69
2022/03/24 02:03:31;;;;;;;8.70;7.85;;;22.00;62.70;;;;;;6119023;28;89175;-68
2022/03/24 02:06:33;;;;;;;8.55;7.75;;;22.00;62.80;;;;;;6134330;28;87879;-69
2022/03/24 02:09:37;;;;;;;9.52;7.82;;;22.10;62.90;;;;;;6132769;28;89542;-69
2022/03/24 02:12:40;;;;;;;9.38;7.78;;;22.10;62.90;;;;;;6132376;28;89081;-68
2022/03/24 02:15:43;;;;;;;8.23;7.43;;;22.00;62.80;;;;;;6130320;28;90113;-69
2022/03/24 02:18:45;;;;;;;8.70;7.80;;;22.00;62.80;;;;;;6133297;28;90527;-69
2022/03/24 02:21:47;;;;;;;9.80;7.82;;;22.00;62.80;;;;;;6132851;28;88991;-69
2022/03/24 02:24:51;;;;;;;9.65;7.70;;;22.00;62.80;;;;;;6132803;28;89147;-69
2022/03/24 02:27:55;;;;;;;8.10;7.30;;;22.00;62.70;;;;;;6121737;28;88270;-69
2022/03/24 02:30:57;;;;;;;8.35;7.55;;;22.00;62.70;;;;;;6130158;28;89697;-69
2022/03/24 02:37:20;;;;;;;8.20;7.40;;;22.00;62.70;;;;;;6124118;28;86513;-69
2022/03/24 02:40:23;;;;;;;7.80;7.03;;;22.00;62.70;;;;;;6126530;28;89030;-69
2022/03/24 02:43:25;;;;;;;8.10;7.30;;;22.00;62.70;;;;;;6128064;28;89201;-69
2022/03/24 02:46:27;;;;;;;7.80;7.00;;;22.00;62.70;;;;;;6131264;28;87962;-68
2022/03/24 02:49:31;;;;;;;8.32;7.53;;;22.00;62.70;;;;;;6132610;28;89087;-69
2022/03/24 02:52:33;;;;;;;7.63;6.93;;;22.00;62.80;;;;;;6133418;28;89118;-69
2022/03/24 02:55:37;;;;;;;7.88;7.10;;;22.00;62.80;;;;;;6131901;28;89385;-69
2022/03/24 02:58:39;;;;;;;7.22;6.50;;;22.00;62.80;;;;;;6131025;28;89113;-69
2022/03/24 03:01:45;;;;;;;8.02;7.22;;;21.90;62.80;;;;;;6118208;28;88215;-68
2022/03/24 03:04:49;;;;;;;7.35;6.65;;;21.90;62.80;;;;;;6131966;28;90233;-69
2022/03/24 03:07:52;;;;;;;7.68;6.88;;;22.00;63.80;;;;;;6120665;28;88319;-69
2022/03/24 03:10:56;;;;;;;7.57;6.78;;;21.90;62.80;;;;;;6131425;28;87944;-69
2022/03/24 03:13:59;;;;;;;7.40;6.70;;;21.90;62.80;;;;;;6132309;28;89054;-69
2022/03/24 03:17:01;;;;;;;7.45;6.68;;;21.90;62.80;;;;;;6123609;28;89994;-69
2022/03/24 03:20:04;;;;;;;6.70;6.03;;;21.90;62.80;;;;;;6129886;28;88405;-69
2022/03/24 03:23:06;;;;;;;7.03;6.32;;;21.90;62.80;;;;;;6133412;28;89451;-69
2022/03/24 03:26:09;;;;;;;6.65;6.00;;;21.90;62.80;;;;;;6132898;28;89129;-69
2022/03/24 03:29:12;;;;;;;7.07;6.38;;;21.90;62.80;;;;;;6135598;28;87985;-69
2022/03/24 03:32:14;;;;;;;6.80;6.20;;;21.90;62.80;;;;;;6135875;28;88096;-70
2022/03/24 03:35:16;;;;;;;6.55;5.95;;;21.90;62.70;;;;;;6137073;28;89126;-69
2022/03/24 03:38:19;;;;;;;6.75;6.15;;;21.90;62.70;;;;;;6130410;28;88182;-69
2022/03/24 03:41:22;;;;;;;6.57;5.97;;;21.90;62.70;;;;;;6130647;28;89058;-69
2022/03/24 03:44:25;;;;;;;6.95;6.25;;;21.90;62.70;;;;;;6135235;28;89384;-69
2022/03/24 03:47:45;;;;;;;6.90;6.13;;;21.90;62.70;;;;;;6124240;28;90062;-69
2022/03/24 03:50:48;;;;;;;6.25;5.75;;;21.90;62.70;;;;;;6134095;28;89530;-69
2022/03/24 03:53:50;;;;;;;6.30;5.68;;;21.90;62.70;;;;;;6134428;28;89015;-68
2022/03/24 03:56:53;;;;;;;6.20;5.60;;;21.90;62.70;;;;;;6133894;28;89410;-69
2022/03/24 03:59:56;;;;;;;6.25;5.65;;;21.80;62.70;;;;;;6135370;28;89107;-69
2022/03/24 04:03:03;;;;;;;6.53;5.93;;;21.80;62.80;;;;;;6134267;28;89352;-69
2022/03/24 04:06:09;;;;;;;6.10;5.50;;;21.90;62.90;;;;;;6134769;28;88981;-69
2022/03/24 04:09:11;;;;;;;5.95;5.35;;;21.90;62.80;;;;;;6123462;28;87256;-69
2022/03/24 04:12:14;;;;;;;6.00;5.40;;;21.80;62.80;;;;;;6134153;28;87830;-69
2022/03/24 04:15:16;;;;;;;5.90;5.40;;;21.80;62.70;;;;;;6133608;28;89214;-69
2022/03/24 04:18:19;;;;;;;5.78;5.28;;;21.80;62.70;;;;;;6135359;28;89989;-69
2022/03/24 04:21:21;;;;;;;5.80;5.30;;;21.80;62.60;;;;;;6135534;28;87806;-69
2022/03/24 04:24:24;;;;;;;6.07;5.47;;;21.80;62.70;;;;;;6131988;28;89057;-68
2022/03/24 04:27:27;;;;;;;6.07;5.38;;;21.80;62.60;;;;;;6126483;28;88062;-68
2022/03/24 04:30:29;;;;;;;5.70;5.20;;;21.80;62.60;;;;;;6133457;28;89008;-69
2022/03/24 04:33:31;;;;;;;5.80;5.20;;;21.80;62.50;;;;;;6123978;28;89088;-68
2022/03/24 04:36:33;;;;;;;5.60;5.10;;;21.90;62.50;;;;;;6121851;28;88354;-68
2022/03/24 04:39:54;;;;;;;5.03;4.55;;;21.90;62.50;;;;;;6132435;28;88489;-69
2022/03/24 04:42:58;;;;;;;5.40;4.90;;;21.90;62.40;;;;;;6134278;28;89057;-69
2022/03/24 04:46:00;;;;;;;5.28;4.78;;;21.90;62.40;;;;;;6134446;28;88323;-68
2022/03/24 04:49:02;;;;;;;5.70;5.07;;;21.90;62.30;;;;;;6134542;28;88984;-68
2022/03/24 04:52:05;;;;;;;5.43;4.93;;;22.00;62.30;;;;;;6134705;28;89087;-68
2022/03/24 04:55:08;;;;;;;6.10;5.00;;;22.00;62.20;;;;;;6132395;28;89073;-69
2022/03/24 04:58:13;;;;;;;5.53;5.03;;;22.00;62.20;;;;;;6133567;28;89471;-69
2022/03/24 05:01:16;;;;;;;5.82;5.32;;;22.00;62.20;;;;;;6134313;28;89141;-69
2022/03/24 05:04:18;;;;;;;5.50;5.00;;;22.00;62.10;;;;;;6132805;28;88884;-69
2022/03/24 05:07:20;;;;;;;6.03;5.43;;;22.00;62.00;;;;;;6122046;28;89054;-69
2022/03/24 05:10:23;;;;;;;6.10;5.50;;;22.10;62.00;;;;;;6135437;28;88354;-69
2022/03/24 05:13:26;;;;;;;6.28;5.68;;;22.10;62.00;;;;;;6127434;28;89161;-69
2022/03/24 05:16:28;;;;;;;6.40;5.80;;;22.10;62.00;;;;;;6130817;28;89388;-68
2022/03/24 05:19:31;;;;;;;6.72;6.03;;;22.10;62.00;;;;;;6131487;28;90063;-69
2022/03/24 05:22:33;;;;;;;6.80;6.00;;;22.10;61.90;;;;;;6134229;28;88492;-69
2022/03/24 05:28:56;;;;;;;6.82;6.22;;;22.20;62.80;;;;;;6134296;28;88199;-68
2022/03/24 05:31:58;;;;;;;7.57;6.70;;;22.10;61.70;;;;;;6120334;28;89186;-69
2022/03/24 05:35:00;;;;;;;7.15;6.47;;;22.20;61.80;;;;;;6132213;28;87983;-69
2022/03/24 05:38:03;;;;;;;7.40;6.70;;;22.20;61.80;;;;;;6121618;28;89262;-69
2022/03/24 05:41:05;;;;;;;7.68;6.97;;;22.20;61.60;;;;;;6132417;28;88750;-69
2022/03/24 05:44:09;;;;;;;7.68;6.97;;;22.20;61.60;;;;;;6134641;28;88756;-69
2022/03/24 05:47:11;;;;;;;7.50;6.80;;;22.20;61.60;;;;;;6134229;28;87863;-68
2022/03/24 05:50:13;;;;;;;7.93;7.15;;;22.30;61.60;;;;;;6130257;28;90047;-69
2022/03/24 05:53:34;;;;;;;8.32;7.47;;;22.30;62.50;;;;;;6134483;28;89321;-70
2022/03/24 05:56:37;;;;;;;8.15;7.35;;;22.40;61.50;;;;;;6130618;28;89413;-68
2022/03/24 05:59:40;;;;;;;9.40;8.50;;;22.30;62.00;;;;;;6115368;28;88053;-68
2022/03/24 06:02:43;;;;;;;8.93;8.13;;;22.40;64.50;;;;;;6122228;28;88990;-68
2022/03/24 06:05:46;;;;;;;9.70;8.70;;;22.40;63.50;;;;;;6121965;28;89096;-69
2022/03/24 06:08:51;;;;;;;9.25;8.35;;;22.50;62.80;;;;;;6119691;28;89091;-68
2022/03/24 06:11:55;;;;;;;10.07;9.07;;;22.50;62.40;;;;;;6118937;28;87543;-68
2022/03/24 06:14:58;;;;;;;10.15;8.50;;;22.60;62.30;;;;;;6125267;28;89575;-68
2022/03/24 06:18:00;;;;;;;9.75;8.75;;;22.60;62.20;;;;;;6115066;28;89565;-68
2022/03/24 06:24:40;;;;;;;9.02;8.13;;;22.60;62.20;;;;;;6118607;28;87901;-68
2022/03/24 06:27:42;;;;;;;10.40;9.40;;;22.60;61.90;;;;;;6131068;28;88212;-68
2022/03/24 06:30:47;;;;;;;9.77;8.77;;;22.60;61.80;;;;;;6132411;28;87920;-68
2022/03/24 06:33:49;;;;;;;9.27;8.27;;;22.70;61.80;;;;;;6116459;28;89532;-68
2022/03/24 06:36:51;;;;;;;9.77;8.63;;;22.70;61.70;;;;;;6127337;28;89123;-68
2022/03/24 06:39:53;;;;;;;9.93;8.93;;;22.70;61.60;;;;;;6115831;28;89055;-68
2022/03/24 06:42:55;;;;;;;9.25;8.35;;;22.70;61.50;;;;;;6111962;28;88351;-68
2022/03/24 06:45:59;;;;;;;9.65;8.73;;;22.70;61.50;;;;;;6133570;28;89042;-68
2022/03/24 06:49:01;;;;;;;9.95;8.95;;;22.70;61.50;;;;;;6130615;28;89425;-68
2022/03/24 06:52:04;;;;;;;9.27;8.38;;;22.70;61.50;;;;;;6130895;28;90412;-68
2022/03/24 06:55:07;;;;;;;10.10;8.98;;;22.80;61.50;;;;;;6131874;28;89060;-68
2022/03/24 06:58:09;;;;;;;9.10;8.13;;;22.80;61.50;;;;;;6120051;28;88934;-68
2022/03/24 07:01:12;;;;;;;8.90;8.00;;;22.80;61.50;;;;;;6131846;28;88300;-69
2022/03/24 07:04:14;;;;;;;8.77;7.88;;;22.70;61.40;;;;;;6136369;28;89892;-69
2022/03/24 07:07:16;;;;;;;8.95;8.10;;;22.80;61.60;;;;;;6135537;28;89498;-69
2022/03/24 07:10:20;;;;;;;8.63;7.70;;;22.80;61.60;;;;;;6138002;28;89210;-68
2022/03/24 07:13:23;;;;;;;8.60;7.80;;;22.80;61.50;;;;;;6136102;28;88500;-67
2022/03/24 07:16:26;;;;;;;7.60;6.85;;;22.70;59.70;;;;;;6127252;28;89414;-67
2022/03/24 07:19:28;;;;;;;9.05;7.57;;;22.70;58.40;;;;;;6130338;28;90433;-67
2022/03/24 07:22:33;;;;;;;7.82;7.13;;;22.70;55.70;;;;;;6135719;28;90012;-68
2022/03/24 07:25:36;;;;;;;8.48;7.15;;;22.60;54.00;;;;;;6127010;28;89195;-67
2022/03/24 07:28:38;;;;;;;8.63;6.97;;;22.60;54.20;;;;;;6110359;28;88226;-67
2022/03/24 07:31:42;;;;;;;7.63;6.80;;;22.60;55.30;;;;;;6112605;28;89171;-68
2022/03/24 07:34:44;;;;;;;7.82;6.95;;;22.60;56.00;;;;;;6133770;28;89132;-67
2022/03/24 07:37:47;;;;;;;10.65;6.30;;;22.60;56.70;;;;;;6127157;28;89113;-68
2022/03/24 07:40:49;;;;;;;7.63;6.25;;;22.60;57.30;;;;;;6128247;28;89044;-68
2022/03/24 07:43:51;;;;;;;10.70;5.97;;;22.60;58.30;;;;;;6135978;28;88652;-69
2022/03/24 07:46:55;;;;;;;7.90;6.10;;;22.60;58.40;;;;;;6137441;28;89184;-67
2022/03/24 07:49:57;;;;;;;8.90;6.10;;;22.70;59.10;;;;;;6119027;28;89157;-68
2022/03/24 07:53:06;;;;;;;8.40;5.88;;;22.70;59.40;;;;;;6125562;28;90017;-67
2022/03/24 07:56:08;;;;;;;8.57;5.80;;;22.70;60.00;;;;;;6126477;28;89425;-67
2022/03/24 07:59:10;;;;;;;8.07;5.50;;;22.80;60.30;;;;;;6125749;28;89079;-67
2022/03/24 08:02:14;;;;;;;7.65;5.75;;;22.70;60.10;;;;;;6126737;28;89300;-67
2022/03/24 08:05:16;;;;;;;6.38;5.75;;;22.80;59.90;;;;;;6132483;28;89570;-67
2022/03/24 08:08:20;;;;;;;6.93;5.45;;;22.70;59.80;;;;;;6134406;28;89026;-68
2022/03/24 08:11:23;;;;;;;6.45;5.82;;;22.80;59.90;;;;;;6133379;28;88113;-68
2022/03/24 08:14:25;;;;;;;8.02;6.05;;;22.80;60.00;;;;;;6135531;28;88372;-68
2022/03/24 08:17:29;;;;;;;6.03;5.20;;;22.80;60.10;;;;;;6131961;28;89037;-67
2022/03/24 08:20:31;;;;;;;7.68;5.45;;;22.80;60.40;;;;;;6121909;28;88987;-69
2022/03/24 08:23:33;;;;;;;6.35;5.65;;;22.80;60.50;;;;;;6132446;28;89996;-68
2022/03/24 08:26:35;;;;;;;5.95;5.35;;;22.70;60.70;;;;;;6131928;28;87815;-67
2022/03/24 08:29:37;;;;;;;6.25;5.10;;;22.70;61.00;;;;;;6127036;28;89424;-67
2022/03/24 08:32:40;;;;;;;7.22;5.47;;;22.70;61.10;;;;;;6135901;28;89090;-68
2022/03/24 08:35:43;;;;;;;9.23;5.60;;;22.70;61.30;;;;;;6133951;28;87909;-68
2022/03/24 08:38:45;;;;;;;7.88;5.22;;;22.70;61.50;;;;;;6128782;28;89101;-67
2022/03/24 08:41:47;;;;;;;5.90;5.13;;;22.70;61.70;;;;;;6132734;28;89220;-67
2022/03/24 08:44:49;;;;;;;7.38;5.57;;;22.70;62.00;;;;;;6134854;28;88809;-67
2022/03/24 08:47:54;;;;;;;9.20;5.22;;;22.70;62.00;;;;;;6133873;28;87249;-67
2022/03/24 08:50:56;;;;;;;5.75;5.05;;;22.70;62.20;;;;;;6134310;28;89091;-67
2022/03/24 08:53:58;;;;;;;8.55;5.35;;;22.70;62.30;;;;;;6121692;28;90387;-66
2022/03/24 08:57:00;;;;;;;5.32;4.70;;;22.70;62.40;;;;;;6127573;28;87894;-67
2022/03/24 09:00:07;;;;;;;6.55;5.45;;;22.70;62.50;;;;;;6125634;28;89059;-67
2022/03/24 09:03:10;;;;;;;5.90;4.95;;;22.70;62.80;;;;;;6133660;28;89123;-66
2022/03/24 09:06:12;;;;;;;5.70;5.07;;;22.60;63.00;;;;;;6133193;28;88254;-67
2022/03/24 09:09:14;;;;;;;5.97;5.32;;;22.60;63.20;;;;;;6131860;28;89016;-66
2022/03/24 09:12:16;;;;;;;5.38;4.60;;;22.60;63.40;;;;;;6125844;28;87819;-67
2022/03/24 09:15:19;;;;;;;5.97;5.13;;;22.60;63.50;;;;;;6127501;28;87521;-67
2022/03/24 09:18:23;;;;;;;5.70;5.05;;;22.60;63.60;;;;;;6118179;28;89312;-67
2022/03/24 09:21:26;;;;;;;5.38;4.88;;;22.50;63.60;;;;;;6127689;28;89134;-67
2022/03/24 09:24:28;;;;;;;5.90;4.90;;;22.50;63.70;;;;;;6125662;28;88904;-67
2022/03/24 09:27:30;;;;;;;5.78;5.18;;;22.50;63.80;;;;;;6133489;28;89305;-67
2022/03/24 09:30:32;;;;;;;6.10;5.15;;;22.50;63.90;;;;;;6131556;28;88400;-67
2022/03/24 09:33:36;;;;;;;6.80;5.10;;;22.50;64.00;;;;;;6121357;28;89132;-67
2022/03/24 09:36:39;;;;;;;7.15;5.10;;;22.50;64.20;;;;;;6131957;28;88938;-67
2022/03/24 09:39:41;;;;;;;6.28;4.82;;;22.50;64.20;;;;;;6130846;28;89313;-66
2022/03/24 09:42:43;;;;;;;5.63;4.60;;;22.50;64.30;;;;;;6112112;28;89230;-67
2022/03/24 09:45:48;;;;;;;5.88;4.90;;;22.60;64.50;;;;;;6119771;28;87540;-67
2022/03/24 09:48:52;;;;;;;7.28;4.50;;;22.50;64.50;;;;;;6134291;28;89006;-67
2022/03/24 09:51:54;;;;;;;6.28;4.68;;;22.50;64.70;;;;;;6132163;28;89419;-65
2022/03/24 09:54:56;;;;;;;7.82;4.90;;;22.50;64.60;;;;;;6133349;28;89945;-67
2022/03/24 09:57:59;;;;;;;5.50;4.85;;;22.50;65.30;;;;;;6120303;28;89110;-67
2022/03/24 10:01:02;;;;;;;5.75;4.40;;;22.60;65.90;;;;;;6131710;28;89140;-67
2022/03/24 10:04:08;;;;;;;9.63;4.50;;;22.60;65.40;;;;;;6126135;28;89364;-67
2022/03/24 10:07:10;;;;;;;5.63;4.93;;;22.50;65.00;;;;;;6127564;28;89378;-68
2022/03/24 10:10:25;;;;;;;6.32;4.43;;;22.50;65.00;;;;;;6125438;28;88293;-66
2022/03/24 10:13:42;;;;;;;5.20;4.72;;;22.50;65.00;;;;;;6130150;28;87848;-67
2022/03/24 10:16:45;;;;;;;7.60;4.85;;;22.50;65.00;;;;;;6122592;28;87345;-67
2022/03/24 10:19:58;;;;;;;6.38;4.45;;;22.50;65.00;;;;;;6121175;28;88018;-68
2022/03/24 10:23:03;;;;;;;4.95;4.20;;;22.50;65.20;;;;;;6125130;28;87814;-67
2022/03/24 10:26:05;;;;;;;4.63;4.15;;;22.50;65.10;;;;;;6129636;28;89927;-67
2022/03/24 10:29:07;;;;;;;5.22;4.60;;;22.50;65.10;;;;;;6132994;28;89107;-66
2022/03/24 10:32:14;;;;;;;5.40;4.53;;;22.50;65.20;;;;;;6116922;28;89082;-67
2022/03/24 10:35:36;;;;;;;5.40;4.63;;;22.50;65.30;;;;;;6133727;28;88034;-67
2022/03/24 10:38:40;;;;;;;6.15;4.43;;;22.50;65.40;;;;;;6125420;28;89116;-67
2022/03/24 10:41:43;;;;;;;5.60;4.10;;;22.50;65.50;;;;;;6134067;28;88084;-67
2022/03/24 10:45:10;;;;;;;5.38;4.32;;;22.50;65.40;;;;;;6131700;28;87049;-67
2022/03/24 10:48:12;;;;;;;7.05;4.40;;;22.50;65.40;;;;;;6122351;28;88658;-67
2022/03/24 10:51:24;;;;;;;6.85;4.30;;;22.50;65.50;;;;;;6135044;28;89044;-67
2022/03/24 10:54:31;;;;;;;5.65;4.22;;;22.50;65.60;;;;;;6138008;28;89188;-68
2022/03/24 10:57:34;;;;;;;7.10;4.43;;;22.50;65.70;;;;;;6135975;28;90028;-67
2022/03/24 11:00:40;;;;;;;5.93;4.30;;;22.50;65.80;;;;;;6134946;28;89420;-67
2022/03/24 11:03:43;;;;;;;4.28;3.53;;;22.50;65.70;;;;;;6144022;28;89021;-67
2022/03/24 11:06:50;;;;;;;6.82;4.15;;;22.50;65.80;;;;;;6139071;28;88179;-66
2022/03/24 11:09:52;;;;;;;7.00;4.22;;;22.50;66.70;;;;;;6140807;28;89144;-68
2022/03/24 11:12:58;;;;;;;4.40;4.00;;;22.50;66.60;;;;;;6136948;28;89324;-67
2022/03/24 11:16:01;;;;;;;6.40;4.18;;;22.50;67.00;;;;;;6130525;28;88606;-66
2022/03/24 11:19:14;;;;;;;5.95;3.95;;;22.60;67.10;;;;;;6135940;28;87068;-66
2022/03/24 11:22:18;;;;;;;6.68;4.32;;;22.60;68.10;;;;;;6135836;28;88983;-66
2022/03/24 11:25:21;;;;;;;7.10;4.40;;;22.60;67.90;;;;;;6132657;28;89021;-67
2022/03/24 11:28:24;;;;;;;6.88;4.10;;;22.70;68.30;;;;;;6112629;28;90091;-66
2022/03/24 11:31:31;;;;;;;4.53;3.90;;;22.70;68.40;;;;;;6134055;28;89115;-67
2022/03/24 11:34:34;;;;;;;4.85;3.85;;;22.70;67.60;;;;;;6134164;28;87927;-66
2022/03/24 11:37:38;;;;;;;5.07;3.90;;;22.70;67.20;;;;;;6122947;28;89124;-65
2022/03/24 11:40:40;;;;;;;7.05;3.90;;;22.70;66.70;;;;;;6135392;28;89587;-67
2022/03/24 11:43:49;;;;;;;8.57;3.95;;;22.70;66.70;;;;;;6136023;28;89523;-65
2022/03/24 11:46:54;;;;;;;5.20;3.88;;;22.70;67.10;;;;;;6127520;28;89249;-65
2022/03/24 11:50:07;;;;;;;7.03;3.60;;;22.60;67.20;;;;;;6127836;28;87219;-65
2022/03/24 11:53:16;;;;;;;4.35;3.72;;;22.60;67.40;;;;;;6131233;28;89120;-64
2022/03/24 11:56:19;;;;;;;5.25;4.05;;;22.60;67.50;;;;;;6119710;28;89400;-65
2022/03/24 11:59:22;;;;;;;6.30;3.40;;;22.60;67.60;;;;;;6125965;28;90044;-65
2022/03/24 12:02:25;;;;;;;10.13;4.15;;;22.60;67.50;;;;;;6133109;28;88990;-65
2022/03/24 12:05:51;;;;;;;6.65;4.03;;;22.60;67.60;;;;;;6135381;28;87856;-64
2022/03/24 12:09:03;;;;;;;12.20;4.13;;;22.60;67.40;;;;;;6124098;28;89124;-65
2022/03/24 12:12:10;;;;;;;7.00;4.38;;;22.60;67.10;;;;;;6131804;28;89137;-65
2022/03/24 12:15:17;;;;;;;5.75;4.15;;;22.50;66.90;;;;;;6120872;28;89014;-65
2022/03/24 12:18:19;;;;;;;5.45;3.50;;;22.60;66.50;;;;;;6134848;28;89077;-65
2022/03/24 12:21:23;;;;;;;5.10;3.85;;;22.50;66.40;;;;;;6120065;28;87910;-65
2022/03/24 12:24:36;;;;;;;4.60;3.50;;;22.50;66.30;;;;;;6129928;28;88318;-65
2022/03/24 12:27:58;;;;;;;5.50;3.47;;;22.50;66.30;;;;;;6130498;28;89400;-65
2022/03/24 12:31:08;;;;;;;4.88;3.53;;;22.50;66.40;;;;;;6132767;28;90022;-65
2022/03/24 12:34:15;;;;;;;5.95;4.20;;;22.60;66.40;;;;;;6134122;28;89129;-65
2022/03/24 12:37:38;;;;;;;5.97;3.60;;;22.60;66.40;;;;;;6121146;28;87949;-65
2022/03/24 12:41:21;;;;;;;4.88;3.72;;;22.60;66.20;;;;;;6133486;28;89153;-65
2022/03/24 12:44:54;;;;;;;5.07;3.53;;;22.60;66.30;;;;;;6135824;28;87992;-65
2022/03/24 12:47:57;;;;;;;4.53;3.42;;;22.60;66.20;;;;;;6122876;28;87911;-65
2022/03/24 12:51:17;;;;;;;4.18;3.70;;;22.60;66.20;;;;;;6132849;28;89277;-65
2022/03/24 12:54:20;;;;;;;4.53;3.53;;;22.60;66.40;;;;;;6122933;28;88434;-65
2022/03/24 12:57:29;;;;;;;4.45;3.40;;;22.60;66.50;;;;;;6131953;28;89042;-64
2022/03/24 13:00:33;;;;;;;7.10;3.90;;;22.60;66.50;;;;;;6132304;28;89127;-65
2022/03/24 13:03:35;;;;;;;4.57;3.22;;;22.50;66.70;;;;;;6134143;28;90081;-64
2022/03/24 13:06:39;;;;;;;5.95;3.72;;;22.50;66.70;;;;;;6130885;28;89428;-65
2022/03/24 13:09:41;;;;;;;4.57;3.40;;;22.50;66.80;;;;;;6132341;28;87867;-65
2022/03/24 13:12:47;;;;;;;4.47;3.75;;;22.50;66.90;;;;;;6133031;28;89117;-66
2022/03/24 13:15:52;;;;;;;5.22;3.80;;;22.50;66.20;;;;;;6127775;28;89404;-65
2022/03/24 13:18:57;;;;;;;5.80;3.90;;;22.50;65.10;;;;;;6131818;28;88025;-65
2022/03/24 13:22:14;;;;;;;5.05;4.28;;;22.50;63.90;;;;;;6127946;28;89108;-65
2022/03/24 13:25:18;;;;;;;4.70;4.30;;;22.50;62.30;;;;;;6132930;28;88828;-68
2022/03/24 13:28:25;;;;;;;4.80;4.40;;;22.50;60.80;;;;;;6134042;28;87976;-64
2022/03/24 13:31:30;;;;;;;6.03;4.40;;;22.50;59.60;;;;;;6132960;28;90794;-65
2022/03/24 13:34:32;;;;;;;4.95;4.28;;;22.50;59.10;;;;;;6132541;28;89965;-65
2022/03/24 13:37:37;;;;;;;4.93;4.47;;;22.50;58.60;;;;;;6132761;28;87020;-65
2022/03/24 13:40:42;;;;;;;4.97;4.50;;;22.50;57.70;;;;;;6132723;28;88034;-65
2022/03/24 13:43:46;;;;;;;4.72;4.18;;;22.50;57.40;;;;;;6120726;28;87977;-65
2022/03/24 13:46:48;;;;;;;4.60;4.20;;;22.50;57.20;;;;;;6133346;28;88960;-65
2022/03/24 13:49:56;;;;;;;4.20;3.80;;;22.50;56.80;;;;;;6133736;28;88980;-65
2022/03/24 13:53:00;;;;;;;4.05;3.65;;;22.50;56.70;;;;;;6119947;28;89418;-65
2022/03/24 13:56:08;;;;;;;3.92;3.53;;;22.50;56.70;;;;;;6134303;28;88592;-64
2022/03/24 13:59:12;;;;;;;3.92;3.50;;;22.40;56.90;;;;;;6121398;28;89064;-65
2022/03/24 14:02:24;;;;;;;3.78;3.40;;;22.40;56.60;;;;;;6129991;28;89072;-65
2022/03/24 14:05:48;;;;;;;3.88;3.28;;;22.40;56.60;;;;;;6126574;28;91777;-65
2022/03/24 14:08:52;;;;;;;4.25;3.75;;;22.40;56.50;;;;;;6124187;28;89180;-64
2022/03/24 14:12:03;;;;;;;3.60;3.30;;;22.40;56.30;;;;;;6119785;28;89171;-65
2022/03/24 14:15:17;;;;;;;3.85;3.42;;;22.40;55.90;;;;;;6131447;28;89665;-64
2022/03/24 14:18:22;;;;;;;3.80;3.30;;;22.40;55.40;;;;;;6126764;28;89059;-65
2022/03/24 14:21:24;;;;;;;3.75;3.35;;;22.40;55.30;;;;;;6131867;28;89043;-65
2022/03/24 14:24:35;;;;;;;3.58;3.28;;;22.40;55.00;;;;;;6114294;28;89154;-64
2022/03/24 14:27:50;;;;;;;3.75;3.33;;;22.40;55.20;;;;;;6129854;28;86954;-64
2022/03/24 14:30:53;;;;;;;4.13;3.25;;;22.40;55.30;;;;;;6130480;28;88413;-65
2022/03/24 14:33:57;;;;;;;4.63;3.42;;;22.40;56.50;;;;;;6133655;28;89390;-65
2022/03/24 14:37:12;;;;;;;3.30;3.00;;;22.40;56.70;;;;;;6130605;28;90046;-64
2022/03/24 14:40:16;;;;;;;4.47;3.00;;;22.40;56.70;;;;;;6119758;28;89103;-67
2022/03/24 14:43:19;;;;;;;4.75;2.92;;;22.40;57.00;;;;;;6133703;28;89171;-68
2022/03/24 14:46:23;;;;;;;4.30;2.72;;;22.40;57.20;;;;;;6135146;28;89017;-67
2022/03/24 14:49:25;;;;;;;5.03;2.65;;;22.40;57.60;;;;;;6111129;28;88770;-67
2022/03/24 14:52:27;;;;;;;2.78;2.58;;;22.40;57.70;;;;;;6129499;28;89274;-68
2022/03/24 14:55:29;;;;;;;4.95;2.92;;;22.40;57.80;;;;;;6129348;28;89171;-68
2022/03/24 14:58:34;;;;;;;3.03;2.63;;;22.40;58.00;;;;;;6137129;28;88288;-67
2022/03/24 15:01:38;;;;;;;6.10;2.75;;;22.40;58.20;;;;;;6122126;28;89626;-67
2022/03/24 15:04:40;;;;;;;3.63;2.65;;;22.40;58.30;;;;;;6131339;28;89086;-67
2022/03/24 15:07:43;;;;;;;5.70;2.80;;;22.40;58.40;;;;;;6133010;28;90164;-68
2022/03/24 15:10:46;;;;;;;4.55;2.50;;;22.40;58.60;;;;;;6131632;28;89112;-67
2022/03/24 15:17:05;;;;;;;3.47;2.53;;;22.40;58.80;;;;;;6129386;28;89975;-67
2022/03/24 15:20:09;;;;;;;4.50;2.58;;;22.40;58.80;;;;;;6126308;28;90415;-68
2022/03/24 15:23:12;;;;;;;3.05;2.20;;;22.40;58.90;;;;;;6131294;28;88870;-68
2022/03/24 15:26:16;;;;;;;2.50;2.30;;;22.40;58.90;;;;;;6134578;28;87977;-68
2022/03/24 15:29:18;;;;;;;2.50;2.30;;;22.40;58.90;;;;;;6129805;28;88299;-67
2022/03/24 15:32:22;;;;;;;2.60;2.28;;;22.40;58.90;;;;;;6135601;28;89107;-68
2022/03/24 15:35:25;;;;;;;2.63;2.42;;;22.30;58.90;;;;;;6134843;28;89033;-68
2022/03/24 15:38:28;;;;;;;2.50;2.30;;;22.30;58.90;;;;;;6136304;28;90219;-68
2022/03/24 15:41:32;;;;;;;3.28;2.38;;;22.40;59.10;;;;;;6135537;28;89202;-67
2022/03/24 15:44:34;;;;;;;2.35;2.15;;;22.30;59.00;;;;;;6124235;28;88420;-67
2022/03/24 15:47:38;;;;;;;2.83;2.42;;;22.30;59.10;;;;;;6135338;28;89421;-68
2022/03/24 15:50:40;;;;;;;2.88;2.30;;;22.30;59.00;;;;;;6134638;28;89045;-68
2022/03/24 15:53:43;;;;;;;2.88;2.40;;;22.30;58.90;;;;;;6122323;28;88867;-67
2022/03/24 15:56:45;;;;;;;2.63;2.33;;;22.30;58.90;;;;;;6127789;28;89361;-67
2022/03/24 15:59:47;;;;;;;2.58;2.35;;;22.30;58.80;;;;;;6130554;28;87459;-67
2022/03/24 16:02:50;;;;;;;2.55;2.30;;;22.30;58.80;;;;;;6135199;28;88976;-67
2022/03/24 16:05:53;;;;;;;2.72;2.42;;;22.30;58.90;;;;;;6132939;28;89096;-68
2022/03/24 16:08:55;;;;;;;2.60;2.40;;;22.40;58.80;;;;;;6122831;28;90299;-67
2022/03/24 16:11:57;;;;;;;2.50;2.30;;;22.30;58.90;;;;;;6133502;28;89028;-68